Time;durP1;ratioP1;P1;durP2;ratioP2;P2;SDS_P1;SDS_P2;PMS_P1;PMS_P2;Temp;Humidity;BMP_temperature;BMP_pressure;BME280_temperature;BME280_humidity;BME280_pressure;Samples;Min_cycle;Max_cycle;Signal;HPM_P1;HPM_P2
2024/01/01 00:01:26;;;;;;;;;;;;;;;;;;5059250;28;19977;-86
2024/01/01 00:03:52;;;;;;;;;;;;;;;;;;5062347;28;19925;-85
2024/01/01 00:06:18;;;;;;;;;;;;;;;;;;5050710;28;20336;-85
2024/01/01 00:08:44;;;;;;;;;;;;;;;;;;5062653;28;19975;-87
2024/01/01 00:11:10;;;;;;;;;;;;;;;;;;5035236;28;19982;-87
2024/01/01 00:13:36;;;;;;;;;;;;;;;;;;5049771;28;19924;-87
2024/01/01 00:16:02;;;;;;;;;;;;;;;;;;5044171;28;19925;-87
2024/01/01 00:18:28;;;;;;;;;;;;;;;;;;5049971;28;19932;-86
2024/01/01 00:20:54;;;;;;;;;;;;;;;;;;5028910;28;19926;-83
2024/01/01 00:23:20;;;;;;;;;;;;;;;;;;5044671;28;19932;-90
2024/01/01 00:25:46;;;;;;;;;;;;;;;;;;5033910;28;19925;-87
2024/01/01 00:28:11;;;;;;;;;;;;;;;;;;5034468;28;20415;-85
2024/01/01 00:30:37;;;;;;;;;;;;;;;;;;5035895;28;19924;-85
2024/01/01 00:33:03;;;;;;;;;;;;;;;;;;5039858;28;19931;-84
2024/01/01 00:35:29;;;;;;;;;;;;;;;;;;5052997;28;19924;-85
2024/01/01 00:37:55;;;;;;;;;;;;;;;;;;5039907;28;20084;-87
2024/01/01 00:40:23;;;;;;;;;;;;;;;;;;5055865;28;19931;-87
2024/01/01 00:42:49;;;;;;;;;;;;;;;;;;5054724;28;19928;-87
2024/01/01 00:45:15;;;;;;;;;;;;;;;;;;5045876;28;19932;-86
2024/01/01 00:47:41;;;;;;;;;;;;;;;;;;5034027;28;20022;-86
2024/01/01 00:50:07;;;;;;;;;;;;;;;;;;5045824;28;19928;-86
2024/01/01 00:52:33;;;;;;;;;;;;;;;;;;5036596;28;19932;-86
2024/01/01 00:55:00;;;;;;;;;;;;;;;;;;5050122;28;19925;-86
2024/01/01 00:57:26;;;;;;;;;;;;;;;;;;5032492;28;19926;-86
2024/01/01 00:59:52;;;;;;;;;;;;;;;;;;5032094;28;19925;-85
2024/01/01 01:02:19;;;;;;;;;;;;;;;;;;5032701;28;19925;-85
2024/01/01 01:04:46;;;;;;;;;;;;;;;;;;5047702;28;20453;-85
2024/01/01 01:07:12;;;;;;;;;;;;;;;;;;5019718;28;20285;-86
2024/01/01 01:09:38;;;;;;;;;;;;;;;;;;5055498;28;19925;-86
2024/01/01 01:12:04;;;;;;;;;;;;;;;;;;5032127;28;19929;-86
2024/01/01 01:14:30;;;;;;;;;;;;;;;;;;5032418;28;20547;-86
2024/01/01 01:16:55;;;;;;;;;;;;;;;;;;5032810;28;20282;-86
2024/01/01 01:19:21;;;;;;;;;;;;;;;;;;5035982;28;19999;-86
2024/01/01 01:21:47;;;;;;;;;;;;;;;;;;5048056;28;19928;-85
2024/01/01 01:24:15;;;;;;;;;;;;;;;;;;5048107;28;19924;-86
2024/01/01 01:26:41;;;;;;;;;;;;;;;;;;5037847;28;19924;-85
2024/01/01 01:29:09;;;;;;;;;;;;;;;;;;5054479;28;19931;-85
2024/01/01 01:31:35;;;;;;;;;;;;;;;;;;5055328;28;20349;-85
2024/01/01 01:34:01;;;;;;;;;;;;;;;;;;5055668;28;20009;-86
2024/01/01 01:36:27;;;;;;;;;;;;;;;;;;5050281;28;20354;-86
2024/01/01 01:38:53;;;;;;;;;;;;;;;;;;5034405;28;20060;-85
2024/01/01 01:41:18;;;;;;;;;;;;;;;;;;5037462;28;19928;-85
2024/01/01 01:43:44;;;;;;;;;;;;;;;;;;5035751;28;19932;-86
2024/01/01 01:46:10;;;;;;;;;;;;;;;;;;5029905;28;19987;-85
2024/01/01 01:48:36;;;;;;;;;;;;;;;;;;5037428;28;19924;-85
2024/01/01 01:51:02;;;;;;;;;;;;;;;;;;5035108;28;19931;-85
2024/01/01 01:53:28;;;;;;;;;;;;;;;;;;5050600;28;19925;-83
2024/01/01 01:55:54;;;;;;;;;;;;;;;;;;5033894;28;19925;-84
2024/01/01 01:58:20;;;;;;;;;;;;;;;;;;5034432;28;20370;-83
2024/01/01 02:00:47;;;;;;;;;;;;;;;;;;5018684;28;20119;-84
2024/01/01 02:03:13;;;;;;;;;;;;;;;;;;5028582;28;19925;-83
2024/01/01 02:05:39;;;;;;;;;;;;;;;;;;5017055;28;19946;-84
2024/01/01 02:08:05;;;;;;;;;;;;;;;;;;5035111;28;19925;-84
2024/01/01 02:10:31;;;;;;;;;;;;;;;;;;5035011;28;19925;-83
2024/01/01 02:12:56;;;;;;;;;;;;;;;;;;5017642;28;19932;-84
2024/01/01 02:15:22;;;;;;;;;;;;;;;;;;5018333;28;19932;-83
2024/01/01 02:17:48;;;;;;;;;;;;;;;;;;5036885;28;19968;-84
2024/01/01 02:20:15;;;;;;;;;;;;;;;;;;5054602;28;19924;-83
2024/01/01 02:22:41;;;;;;;;;;;;;;;;;;5039961;28;19932;-84
2024/01/01 02:25:08;;;;;;;;;;;;;;;;;;5018132;28;19925;-83
2024/01/01 02:27:34;;;;;;;;;;;;;;;;;;5017859;28;19929;-84
2024/01/01 02:30:00;;;;;;;;;;;;;;;;;;5018081;28;19991;-84
2024/01/01 02:32:26;;;;;;;;;;;;;;;;;;5018672;28;19932;-84
2024/01/01 02:34:51;;;;;;;;;;;;;;;;;;5032118;28;20019;-84
2024/01/01 02:37:17;;;;;;;;;;;;;;;;;;5038028;28;19928;-84
2024/01/01 02:39:43;;;;;;;;;;;;;;;;;;5035978;28;19924;-83
2024/01/01 02:42:09;;;;;;;;;;;;;;;;;;5017996;28;19968;-84
2024/01/01 02:44:35;;;;;;;;;;;;;;;;;;5035483;28;19939;-84
2024/01/01 02:47:01;;;;;;;;;;;;;;;;;;5054258;28;19924;-84
2024/01/01 02:49:27;;;;;;;;;;;;;;;;;;5038091;28;19943;-85
2024/01/01 02:51:53;;;;;;;;;;;;;;;;;;5017097;28;20367;-84
2024/01/01 02:54:19;;;;;;;;;;;;;;;;;;5035522;28;20343;-84
2024/01/01 02:56:45;;;;;;;;;;;;;;;;;;5053933;28;19928;-83
2024/01/01 02:59:11;;;;;;;;;;;;;;;;;;5053931;28;19925;-84
2024/01/01 03:01:37;;;;;;;;;;;;;;;;;;5037802;28;19979;-84
2024/01/01 03:04:03;;;;;;;;;;;;;;;;;;5053234;28;19925;-86
2024/01/01 03:06:29;;;;;;;;;;;;;;;;;;5042202;28;19972;-84
2024/01/01 03:08:58;;;;;;;;;;;;;;;;;;5017835;28;19939;-84
2024/01/01 03:11:24;;;;;;;;;;;;;;;;;;5017372;28;20023;-86
2024/01/01 03:13:50;;;;;;;;;;;;;;;;;;5016824;28;19991;-84
2024/01/01 03:16:16;;;;;;;;;;;;;;;;;;5034486;28;19929;-84
2024/01/01 03:18:42;;;;;;;;;;;;;;;;;;5031851;28;19932;-84
2024/01/01 03:21:08;;;;;;;;;;;;;;;;;;5053624;28;19921;-85
2024/01/01 03:23:34;;;;;;;;;;;;;;;;;;5054110;28;20349;-85
2024/01/01 03:26:00;;;;;;;;;;;;;;;;;;5053749;28;19924;-84
2024/01/01 03:28:26;;;;;;;;;;;;;;;;;;5033552;28;20019;-85
2024/01/01 03:30:52;;;;;;;;;;;;;;;;;;5037350;28;19928;-85
2024/01/01 03:33:18;;;;;;;;;;;;;;;;;;5054445;28;20358;-85
2024/01/01 03:35:45;;;;;;;;;;;;;;;;;;5053812;28;20011;-85
2024/01/01 03:38:10;;;;;;;;;;;;;;;;;;5053838;28;19936;-85
2024/01/01 03:40:36;;;;;;;;;;;;;;;;;;5037855;28;19924;-83
2024/01/01 03:43:02;;;;;;;;;;;;;;;;;;5053586;28;19928;-86
2024/01/01 03:45:28;;;;;;;;;;;;;;;;;;5054287;28;20061;-86
2024/01/01 03:47:54;;;;;;;;;;;;;;;;;;5047156;28;20358;-87
2024/01/01 03:50:20;;;;;;;;;;;;;;;;;;5034807;28;19929;-86
2024/01/01 03:52:47;;;;;;;;;;;;;;;;;;5037009;28;20427;-85
2024/01/01 03:55:15;;;;;;;;;;;;;;;;;;5040968;28;19935;-87
2024/01/01 03:57:41;;;;;;;;;;;;;;;;;;5041013;28;19978;-85
2024/01/01 04:00:08;;;;;;;;;;;;;;;;;;5041122;28;19976;-86
2024/01/01 04:02:34;;;;;;;;;;;;;;;;;;5041236;28;19960;-85
2024/01/01 04:05:00;;;;;;;;;;;;;;;;;;5056764;28;19983;-86
2024/01/01 04:07:26;;;;;;;;;;;;;;;;;;5057287;28;20039;-85
2024/01/01 04:09:55;;;;;;;;;;;;;;;;;;5038819;28;19924;-85
2024/01/01 04:12:21;;;;;;;;;;;;;;;;;;5030067;28;20011;-86
2024/01/01 04:14:47;;;;;;;;;;;;;;;;;;5057703;28;20019;-85
2024/01/01 04:17:13;;;;;;;;;;;;;;;;;;5040834;28;19928;-86
2024/01/01 04:19:39;;;;;;;;;;;;;;;;;;5041117;28;19978;-85
2024/01/01 04:22:05;;;;;;;;;;;;;;;;;;5042285;28;19976;-86
2024/01/01 04:24:31;;;;;;;;;;;;;;;;;;5037399;28;19975;-86
2024/01/01 04:26:57;;;;;;;;;;;;;;;;;;5036815;28;19967;-85
2024/01/01 04:29:23;;;;;;;;;;;;;;;;;;5020428;28;19932;-85
2024/01/01 04:31:49;;;;;;;;;;;;;;;;;;5037465;28;19924;-85
2024/01/01 04:34:15;;;;;;;;;;;;;;;;;;5037111;28;19932;-84
2024/01/01 04:36:41;;;;;;;;;;;;;;;;;;5020410;28;19925;-86
2024/01/01 04:39:08;;;;;;;;;;;;;;;;;;5036444;28;19925;-85
2024/01/01 04:41:34;;;;;;;;;;;;;;;;;;5020713;28;19925;-86
2024/01/01 04:44:00;;;;;;;;;;;;;;;;;;5019754;28;19936;-86
2024/01/01 04:46:26;;;;;;;;;;;;;;;;;;5057081;28;19925;-86
2024/01/01 04:48:52;;;;;;;;;;;;;;;;;;5040699;28;19932;-86
2024/01/01 04:51:18;;;;;;;;;;;;;;;;;;5056182;28;19929;-86
2024/01/01 04:53:44;;;;;;;;;;;;;;;;;;5040033;28;20285;-86
2024/01/01 04:56:10;;;;;;;;;;;;;;;;;;5056146;28;19951;-85
2024/01/01 04:58:36;;;;;;;;;;;;;;;;;;5039902;28;20008;-85
2024/01/01 05:01:02;;;;;;;;;;;;;;;;;;5035786;28;19975;-86
2024/01/01 05:03:28;;;;;;;;;;;;;;;;;;5034023;28;20004;-86
2024/01/01 05:05:54;;;;;;;;;;;;;;;;;;5019198;28;19985;-85
2024/01/01 05:08:20;;;;;;;;;;;;;;;;;;5018996;28;19980;-85
2024/01/01 05:10:45;;;;;;;;;;;;;;;;;;5025008;28;19929;-85
2024/01/01 05:13:11;;;;;;;;;;;;;;;;;;5035525;28;20023;-86
2024/01/01 05:15:39;;;;;;;;;;;;;;;;;;5036679;28;19925;-86
2024/01/01 05:18:05;;;;;;;;;;;;;;;;;;5019896;28;19931;-85
2024/01/01 05:20:32;;;;;;;;;;;;;;;;;;5036269;28;19924;-86
2024/01/01 05:22:58;;;;;;;;;;;;;;;;;;5053143;28;19931;-87
2024/01/01 05:25:24;;;;;;;;;;;;;;;;;;5055594;28;19924;-86
2024/01/01 05:27:50;;;;;;;;;;;;;;;;;;5055700;28;19931;-87
2024/01/01 05:30:15;;;;;;;;;;;;;;;;;;5038596;28;20021;-88
2024/01/01 05:32:41;;;;;;;;;;;;;;;;;;5055266;28;19925;-86
2024/01/01 05:35:07;;;;;;;;;;;;;;;;;;5055771;28;19978;-87
2024/01/01 05:37:33;;;;;;;;;;;;;;;;;;5043323;28;19924;-88
2024/01/01 05:39:59;;;;;;;;;;;;;;;;;;5019886;28;20316;-87
2024/01/01 05:42:25;;;;;;;;;;;;;;;;;;5019055;28;20428;-87
2024/01/01 05:44:51;;;;;;;;;;;;;;;;;;5019673;28;20011;-86
2024/01/01 05:47:17;;;;;;;;;;;;;;;;;;5054608;28;19972;-87
2024/01/01 05:49:43;;;;;;;;;;;;;;;;;;5055976;28;19950;-87
2024/01/01 05:52:09;;;;;;;;;;;;;;;;;;5042441;28;19924;-87
2024/01/01 05:54:35;;;;;;;;;;;;;;;;;;5035975;28;19991;-85
2024/01/01 05:57:01;;;;;;;;;;;;;;;;;;5019200;28;19925;-86
2024/01/01 05:59:27;;;;;;;;;;;;;;;;;;5035725;28;19925;-86
2024/01/01 06:01:53;;;;;;;;;;;;;;;;;;5033135;28;19925;-86
2024/01/01 06:04:19;;;;;;;;;;;;;;;;;;5038489;28;20403;-87
2024/01/01 06:06:45;;;;;;;;;;;;;;;;;;5055104;28;19947;-86
2024/01/01 06:09:11;;;;;;;;;;;;;;;;;;5055204;28;20025;-85
2024/01/01 06:11:37;;;;;;;;;;;;;;;;;;5055333;28;19928;-85
2024/01/01 06:14:03;;;;;;;;;;;;;;;;;;5037211;28;19987;-85
2024/01/01 06:16:29;;;;;;;;;;;;;;;;;;5018511;28;19924;-86
2024/01/01 06:18:55;;;;;;;;;;;;;;;;;;5036463;28;19970;-86
2024/01/01 06:21:21;;;;;;;;;;;;;;;;;;5036084;28;20388;-85
2024/01/01 06:23:47;;;;;;;;;;;;;;;;;;5018973;28;19979;-86
2024/01/01 06:26:13;;;;;;;;;;;;;;;;;;5018567;28;19931;-86
2024/01/01 06:28:39;;;;;;;;;;;;;;;;;;5018426;28;19925;-85
2024/01/01 06:31:05;;;;;;;;;;;;;;;;;;5018965;28;20359;-85
2024/01/01 06:33:31;;;;;;;;;;;;;;;;;;5018375;28;20411;-86
2024/01/01 06:35:57;;;;;;;;;;;;;;;;;;5018219;28;19932;-86
2024/01/01 06:38:23;;;;;;;;;;;;;;;;;;5018236;28;19928;-85
2024/01/01 06:40:49;;;;;;;;;;;;;;;;;;5032695;28;19929;-85
2024/01/01 06:43:15;;;;;;;;;;;;;;;;;;5037289;28;19924;-85
2024/01/01 06:45:41;;;;;;;;;;;;;;;;;;5038172;28;19935;-87
2024/01/01 06:48:11;;;;;;;;;;;;;;;;;;5038491;28;19925;-86
2024/01/01 06:50:37;;;;;;;;;;;;;;;;;;5049833;28;20011;-86
2024/01/01 06:53:03;;;;;;;;;;;;;;;;;;5018573;28;20062;-86
2024/01/01 06:55:30;;;;;;;;;;;;;;;;;;5034418;28;19924;-87
2024/01/01 06:57:56;;;;;;;;;;;;;;;;;;5023426;28;19924;-85
2024/01/01 07:00:22;;;;;;;;;;;;;;;;;;5054281;28;20038;-85
2024/01/01 07:02:48;;;;;;;;;;;;;;;;;;5038129;28;20403;-84
2024/01/01 07:05:15;;;;;;;;;;;;;;;;;;5052894;28;19939;-85
2024/01/01 07:07:41;;;;;;;;;;;;;;;;;;5035019;28;20016;-86
2024/01/01 07:10:07;;;;;;;;;;;;;;;;;;5018401;28;19925;-87
2024/01/01 07:12:33;;;;;;;;;;;;;;;;;;5017235;28;19924;-87
2024/01/01 07:15:00;;;;;;;;;;;;;;;;;;5018328;28;19928;-86
2024/01/01 07:17:27;;;;;;;;;;;;;;;;;;5018080;28;20388;-86
2024/01/01 07:19:53;;;;;;;;;;;;;;;;;;5034434;28;19972;-86
2024/01/01 07:22:19;;;;;;;;;;;;;;;;;;5049348;28;19967;-87
2024/01/01 07:24:45;;;;;;;;;;;;;;;;;;5055192;28;19929;-86
2024/01/01 07:27:11;;;;;;;;;;;;;;;;;;5037161;28;19929;-87
2024/01/01 07:29:37;;;;;;;;;;;;;;;;;;5038772;28;19935;-86
2024/01/01 07:32:04;;;;;;;;;;;;;;;;;;5022156;28;19928;-86
2024/01/01 07:34:30;;;;;;;;;;;;;;;;;;5021796;28;20366;-86
2024/01/01 07:36:57;;;;;;;;;;;;;;;;;;5038253;28;19924;-85
2024/01/01 07:39:23;;;;;;;;;;;;;;;;;;5021677;28;19947;-85
2024/01/01 07:41:49;;;;;;;;;;;;;;;;;;5038182;28;19926;-86
2024/01/01 07:44:15;;;;;;;;;;;;;;;;;;5037118;28;20358;-85
2024/01/01 07:46:41;;;;;;;;;;;;;;;;;;5038152;28;19998;-86
2024/01/01 07:49:07;;;;;;;;;;;;;;;;;;5028510;28;20385;-86
2024/01/01 07:51:33;;;;;;;;;;;;;;;;;;5041009;28;20285;-86
2024/01/01 07:53:59;;;;;;;;;;;;;;;;;;5041010;28;19994;-86
2024/01/01 07:56:26;;;;;;;;;;;;;;;;;;5040977;28;19929;-86
2024/01/01 07:58:53;;;;;;;;;;;;;;;;;;5040707;28;20285;-86
2024/01/01 08:01:19;;;;;;;;;;;;;;;;;;5040825;28;19979;-87
2024/01/01 08:03:45;;;;;;;;;;;;;;;;;;5020992;28;19972;-85
2024/01/01 08:06:10;;;;;;;;;;;;;;;;;;5036939;28;19935;-86
2024/01/01 08:08:36;;;;;;;;;;;;;;;;;;5028355;28;19931;-86
2024/01/01 08:11:02;;;;;;;;;;;;;;;;;;5057432;28;19925;-86
2024/01/01 08:13:28;;;;;;;;;;;;;;;;;;5041784;28;20381;-86
2024/01/01 08:15:54;;;;;;;;;;;;;;;;;;5037368;28;20324;-85
2024/01/01 08:18:20;;;;;;;;;;;;;;;;;;5020925;28;19966;-85
2024/01/01 08:20:46;;;;;;;;;;;;;;;;;;5020049;28;20075;-86
2024/01/01 08:23:12;;;;;;;;;;;;;;;;;;5026109;28;19963;-85
2024/01/01 08:25:39;;;;;;;;;;;;;;;;;;5052006;28;19991;-86
2024/01/01 08:28:05;;;;;;;;;;;;;;;;;;5038524;28;19932;-85
2024/01/01 08:30:31;;;;;;;;;;;;;;;;;;5038515;28;19924;-85
2024/01/01 08:32:57;;;;;;;;;;;;;;;;;;5029169;28;20392;-85
2024/01/01 08:35:23;;;;;;;;;;;;;;;;;;5040257;28;20278;-87
2024/01/01 08:37:49;;;;;;;;;;;;;;;;;;5056291;28;19924;-85
2024/01/01 08:40:15;;;;;;;;;;;;;;;;;;5037433;28;19931;-86
2024/01/01 08:42:42;;;;;;;;;;;;;;;;;;5056092;28;19925;-89
2024/01/01 08:45:09;;;;;;;;;;;;;;;;;;5039821;28;19928;-86
2024/01/01 08:47:54;;;;;;;;;;;;;;;;;;5027535;28;19936;-79
2024/01/01 08:50:20;;;;;;;;;;;;;;;;;;5048722;28;20354;-82
2024/01/01 08:52:47;;;;;;;;;;;;;;;;;;5039409;28;19925;-86
2024/01/01 08:58:07;;;;;;;;;;;;;;;;;;5072979;28;19925;-79
2024/01/01 09:00:40;;;;;;;;;;;;;;;;;;5026964;28;19950;-83
2024/01/01 09:03:06;;;;;;;;;;;;;;;;;;5031104;28;19924;-84
2024/01/01 09:06:04;;;;;;;;;;;;;;;;;;5014414;28;19925;-85
2024/01/01 09:09:14;;;;;;;;;;;;;;;;;;5018866;28;19972;-86
2024/01/01 09:11:52;;;;;;;;;;;;;;;;;;4959908;28;19925;-85
2024/01/01 09:14:18;;;;;;;;;;;;;;;;;;5001619;28;19962;-86
2024/01/01 09:20:23;;;;;;;;;;;;;;;;;;5028406;28;19932;-87
2024/01/01 09:23:07;;;;;;;;;;;;;;;;;;4972789;28;19930;-87
2024/01/01 09:25:33;;;;;;;;;;;;;;;;;;4940793;28;19926;-84
2024/01/01 09:27:59;;;;;;;;;;;;;;;;;;4936507;29;19946;-84
2024/01/01 09:30:25;;;;;;;;;;;;;;;;;;4943631;28;19926;-86
2024/01/01 09:32:52;;;;;;;;;;;;;;;;;;4936219;28;20013;-88
2024/01/01 09:35:28;;;;;;;;;;;;;;;;;;4961046;28;19949;-88
2024/01/01 09:37:54;;;;;;;;;;;;;;;;;;4979148;28;19937;-82
2024/01/01 09:55:45;;;;;;;;;;;;;;;;;;5051838;28;19952;-87
2024/01/01 10:04:35;;;;;;;;;;;;;;;;;;4969788;28;19926;-87
2024/01/01 10:07:14;;;;;;;;;;;;;;;;;;4955158;28;19953;-87
2024/01/01 10:13:07;;;;;;;;;;;;;;;;;;5011281;28;20394;-86
2024/01/01 10:19:13;;;;;;;;;;;;;;;;;;5011710;28;20298;-86
2024/01/01 10:22:20;;;;;;;;;;;;;;;;;;4994527;28;20072;-88
2024/01/01 10:30:37;;;;;;;;;;;;;;;;;;5008984;28;19971;-84
2024/01/01 10:33:03;;;;;;;;;;;;;;;;;;5014476;28;20016;-90
2024/01/01 10:35:29;;;;;;;;;;;;;;;;;;5010707;28;19932;-86
2024/01/01 10:37:55;;;;;;;;;;;;;;;;;;5017448;28;19932;-89
2024/01/01 10:40:21;;;;;;;;;;;;;;;;;;5044167;28;19925;-88
2024/01/01 10:42:48;;;;;;;;;;;;;;;;;;5019741;28;20019;-85
2024/01/01 10:45:14;;;;;;;;;;;;;;;;;;5035184;28;19975;-88
2024/01/01 10:47:40;;;;;;;;;;;;;;;;;;5044468;28;20416;-88
2024/01/01 10:50:05;;;;;;;;;;;;;;;;;;5025778;28;19921;-89
2024/01/01 10:52:31;;;;;;;;;;;;;;;;;;5042482;28;19925;-88
2024/01/01 10:54:58;;;;;;;;;;;;;;;;;;5026059;28;20550;-88
2024/01/01 10:57:24;;;;;;;;;;;;;;;;;;5017327;28;19961;-88
2024/01/01 10:59:50;;;;;;;;;;;;;;;;;;5020704;28;20015;-88
2024/01/01 11:02:16;;;;;;;;;;;;;;;;;;5020333;28;19928;-87
2024/01/01 11:04:42;;;;;;;;;;;;;;;;;;5020703;28;19925;-88
2024/01/01 11:07:07;;;;;;;;;;;;;;;;;;5028079;28;20165;-87
2024/01/01 11:09:34;;;;;;;;;;;;;;;;;;5032870;28;19932;-87
2024/01/01 11:12:02;;;;;;;;;;;;;;;;;;5043937;28;20007;-86
2024/01/01 11:14:28;;;;;;;;;;;;;;;;;;5026451;28;19925;-86
2024/01/01 11:16:54;;;;;;;;;;;;;;;;;;5029553;28;20011;-87
2024/01/01 11:19:20;;;;;;;;;;;;;;;;;;5040728;28;19948;-87
2024/01/01 11:21:46;;;;;;;;;;;;;;;;;;5024478;28;19925;-87
2024/01/01 11:24:12;;;;;;;;;;;;;;;;;;5028943;28;19928;-87
2024/01/01 11:26:38;;;;;;;;;;;;;;;;;;5026403;28;19962;-87
2024/01/01 11:29:04;;;;;;;;;;;;;;;;;;5040836;28;19929;-90
2024/01/01 11:31:30;;;;;;;;;;;;;;;;;;5021860;28;19936;-87
2024/01/01 11:33:56;;;;;;;;;;;;;;;;;;5029223;28;19925;-89
2024/01/01 11:36:22;;;;;;;;;;;;;;;;;;5048268;28;19924;-85
2024/01/01 11:38:48;;;;;;;;;;;;;;;;;;5039064;28;19925;-87
2024/01/01 11:41:14;;;;;;;;;;;;;;;;;;5025467;28;19925;-90
2024/01/01 11:43:43;;;;;;;;;;;;;;;;;;5046635;28;20038;-88
2024/01/01 11:46:09;;;;;;;;;;;;;;;;;;5029903;28;19925;-87
2024/01/01 11:48:36;;;;;;;;;;;;;;;;;;5032996;28;19939;-88
2024/01/01 11:51:02;;;;;;;;;;;;;;;;;;5034609;28;19931;-87
2024/01/01 11:53:28;;;;;;;;;;;;;;;;;;5035472;28;20015;-89
2024/01/01 11:55:54;;;;;;;;;;;;;;;;;;5024446;28;19925;-88
2024/01/01 11:58:21;;;;;;;;;;;;;;;;;;5026350;28;19964;-88
2024/01/01 12:00:48;;;;;;;;;;;;;;;;;;5032087;28;20388;-89
2024/01/01 12:03:14;;;;;;;;;;;;;;;;;;5023511;28;19921;-88
2024/01/01 12:05:41;;;;;;;;;;;;;;;;;;5025335;28;19980;-88
2024/01/01 12:08:07;;;;;;;;;;;;;;;;;;5026741;28;19932;-88
2024/01/01 12:10:35;;;;;;;;;;;;;;;;;;5049275;28;19925;-88
2024/01/01 12:13:03;;;;;;;;;;;;;;;;;;5058852;28;19925;-88
2024/01/01 12:15:29;;;;;;;;;;;;;;;;;;5023429;28;19925;-93
2024/01/01 12:17:55;;;;;;;;;;;;;;;;;;5047476;28;19925;-85
2024/01/01 12:20:24;;;;;;;;;;;;;;;;;;5028035;28;19972;-89
2024/01/01 12:22:50;;;;;;;;;;;;;;;;;;5035387;28;20007;-87
2024/01/01 12:25:16;;;;;;;;;;;;;;;;;;5053781;28;19924;-86
2024/01/01 12:27:42;;;;;;;;;;;;;;;;;;5033708;28;19924;-84
2024/01/01 12:30:08;;;;;;;;;;;;;;;;;;5025635;28;19928;-85
2024/01/01 12:32:34;;;;;;;;;;;;;;;;;;5031072;28;20328;-86
2024/01/01 12:35:00;;;;;;;;;;;;;;;;;;5028335;28;19960;-85
2024/01/01 12:37:26;;;;;;;;;;;;;;;;;;5032759;28;20321;-86
2024/01/01 12:39:52;;;;;;;;;;;;;;;;;;5032687;28;20392;-87
2024/01/01 12:42:18;;;;;;;;;;;;;;;;;;5025537;28;19983;-86
2024/01/01 12:44:44;;;;;;;;;;;;;;;;;;5056953;28;19967;-86
2024/01/01 12:47:10;;;;;;;;;;;;;;;;;;5026054;28;19967;-87
2024/01/01 12:49:36;;;;;;;;;;;;;;;;;;5022403;28;19982;-94
2024/01/01 12:52:05;;;;;;;;;;;;;;;;;;5037511;28;19975;-86
2024/01/01 12:54:31;;;;;;;;;;;;;;;;;;5036937;28;19928;-84
2024/01/01 12:56:58;;;;;;;;;;;;;;;;;;5036789;28;19932;-86
2024/01/01 12:59:24;;;;;;;;;;;;;;;;;;5039127;28;19924;-85
2024/01/01 13:01:50;;;;;;;;;;;;;;;;;;5054015;28;20413;-84
2024/01/01 13:04:16;;;;;;;;;;;;;;;;;;5031157;28;19931;-86
2024/01/01 13:06:42;;;;;;;;;;;;;;;;;;5056559;28;19925;-86
2024/01/01 13:09:08;;;;;;;;;;;;;;;;;;5055560;28;19931;-85
2024/01/01 13:11:34;;;;;;;;;;;;;;;;;;5036263;28;19924;-88
2024/01/01 13:14:00;;;;;;;;;;;;;;;;;;5032325;28;20382;-86
2024/01/01 13:16:26;;;;;;;;;;;;;;;;;;5035739;28;19932;-86
2024/01/01 13:18:52;;;;;;;;;;;;;;;;;;5034329;28;19968;-86
2024/01/01 13:21:19;;;;;;;;;;;;;;;;;;5035774;28;20423;-87
2024/01/01 13:23:45;;;;;;;;;;;;;;;;;;5029306;28;20350;-86
2024/01/01 13:26:11;;;;;;;;;;;;;;;;;;5025496;28;20411;-86
2024/01/01 13:28:37;;;;;;;;;;;;;;;;;;5046729;28;20378;-86
2024/01/01 13:31:03;;;;;;;;;;;;;;;;;;5047201;28;19931;-86
2024/01/01 13:33:29;;;;;;;;;;;;;;;;;;5044100;28;20279;-87
2024/01/01 13:35:55;;;;;;;;;;;;;;;;;;5043534;28;20003;-87
2024/01/01 13:38:21;;;;;;;;;;;;;;;;;;5026645;28;19929;-87
2024/01/01 13:40:47;;;;;;;;;;;;;;;;;;5032437;28;19925;-87
2024/01/01 13:43:14;;;;;;;;;;;;;;;;;;5024240;28;19925;-86
2024/01/01 13:45:40;;;;;;;;;;;;;;;;;;5020987;28;19935;-87
2024/01/01 13:48:06;;;;;;;;;;;;;;;;;;5025819;28;19925;-87
2024/01/01 13:50:32;;;;;;;;;;;;;;;;;;5043932;28;19971;-88
2024/01/01 13:52:58;;;;;;;;;;;;;;;;;;5025127;28;19928;-88
2024/01/01 13:55:24;;;;;;;;;;;;;;;;;;5047936;28;20026;-88
2024/01/01 13:57:51;;;;;;;;;;;;;;;;;;5024156;28;19972;-87
2024/01/01 14:00:27;;;;;;;;;;;;;;;;;;5027139;28;20041;-82
2024/01/01 14:03:14;;;;;;;;;;;;;;;;;;5061010;28;20428;-91
2024/01/01 14:05:41;;;;;;;;;;;;;;;;;;5031278;28;19924;-88
2024/01/01 14:08:13;;;;;;;;;;;;;;;;;;5021156;28;19970;-85
2024/01/01 14:10:41;;;;;;;;;;;;;;;;;;5037619;28;20007;-87
2024/01/01 14:16:13;;;;;;;;;;;;;;;;;;5032880;28;19935;-89
2024/01/01 14:18:39;;;;;;;;;;;;;;;;;;5036677;28;19925;-89
2024/01/01 14:21:08;;;;;;;;;;;;;;;;;;5048501;28;19933;-86
2024/01/01 14:23:34;;;;;;;;;;;;;;;;;;5035729;28;19925;-87
2024/01/01 14:26:06;;;;;;;;;;;;;;;;;;5035926;28;20370;-88
2024/01/01 14:28:57;;;;;;;;;;;;;;;;;;5049621;28;20012;-88
2024/01/01 14:32:02;;;;;;;;;;;;;;;;;;5032967;28;19920;-88
2024/01/01 14:34:35;;;;;;;;;;;;;;;;;;5015379;28;19925;-88
2024/01/01 14:37:14;;;;;;;;;;;;;;;;;;5027401;28;19932;-87
2024/01/01 14:40:32;;;;;;;;;;;;;;;;;;5032756;28;20400;-88
2024/01/01 14:43:16;;;;;;;;;;;;;;;;;;5025499;28;20298;-88
2024/01/01 14:45:44;;;;;;;;;;;;;;;;;;5015533;28;19925;-89
2024/01/01 14:48:25;;;;;;;;;;;;;;;;;;5032253;28;20451;-84
2024/01/01 14:50:51;;;;;;;;;;;;;;;;;;5014459;28;20046;-83
2024/01/01 14:53:17;;;;;;;;;;;;;;;;;;5014280;28;19979;-83
2024/01/01 14:55:49;;;;;;;;;;;;;;;;;;5015421;28;19932;-87
2024/01/01 14:58:20;;;;;;;;;;;;;;;;;;5040605;28;19925;-86
2024/01/01 15:01:08;;;;;;;;;;;;;;;;;;5048662;28;20362;-87
2024/01/01 15:04:13;;;;;;;;;;;;;;;;;;5039941;28;19967;-85
2024/01/01 15:06:45;;;;;;;;;;;;;;;;;;5034507;28;19925;-87
2024/01/01 15:18:32;;;;;;;;;;;;;;;;;;5036100;28;20431;-87
2024/01/01 15:21:07;;;;;;;;;;;;;;;;;;5013231;28;20317;-85
2024/01/01 15:23:34;;;;;;;;;;;;;;;;;;5029500;28;19975;-86
2024/01/01 15:26:00;;;;;;;;;;;;;;;;;;5030697;28;19925;-87
2024/01/01 15:28:26;;;;;;;;;;;;;;;;;;5029819;28;19932;-87
2024/01/01 15:30:52;;;;;;;;;;;;;;;;;;5034698;28;19933;-86
2024/01/01 15:33:19;;;;;;;;;;;;;;;;;;5033441;28;20286;-86
2024/01/01 15:35:45;;;;;;;;;;;;;;;;;;5014845;28;19925;-86
2024/01/01 15:38:11;;;;;;;;;;;;;;;;;;5014492;28;20015;-87
2024/01/01 15:40:37;;;;;;;;;;;;;;;;;;5029353;28;19921;-87
2024/01/01 15:43:03;;;;;;;;;;;;;;;;;;5014374;28;19932;-85
2024/01/01 15:45:30;;;;;;;;;;;;;;;;;;5029958;28;19980;-86
2024/01/01 15:48:02;;;;;;;;;;;;;;;;;;5034501;28;19934;-86
2024/01/01 15:50:28;;;;;;;;;;;;;;;;;;5034751;28;19983;-87
2024/01/01 15:52:54;;;;;;;;;;;;;;;;;;5018467;28;19925;-87
2024/01/01 15:55:24;;;;;;;;;;;;;;;;;;5033094;28;19975;-87
2024/01/01 15:57:50;;;;;;;;;;;;;;;;;;5021859;28;19933;-86
2024/01/01 16:00:17;;;;;;;;;;;;;;;;;;5018384;28;19928;-86
2024/01/01 16:02:43;;;;;;;;;;;;;;;;;;5017666;28;19925;-86
2024/01/01 16:05:11;;;;;;;;;;;;;;;;;;5034164;28;19936;-88
2024/01/01 16:07:37;;;;;;;;;;;;;;;;;;5018098;28;19925;-89
2024/01/01 16:10:04;;;;;;;;;;;;;;;;;;5018383;28;19925;-90
2024/01/01 16:12:30;;;;;;;;;;;;;;;;;;5025033;28;19925;-88
2024/01/01 16:14:56;;;;;;;;;;;;;;;;;;5038642;28;19947;-89
2024/01/01 16:17:22;;;;;;;;;;;;;;;;;;5038133;28;19925;-87
2024/01/01 16:19:48;;;;;;;;;;;;;;;;;;5038441;28;20330;-89
2024/01/01 16:22:14;;;;;;;;;;;;;;;;;;5045555;28;19991;-89
2024/01/01 16:24:40;;;;;;;;;;;;;;;;;;5018185;28;19952;-89
2024/01/01 16:27:06;;;;;;;;;;;;;;;;;;5018208;28;19944;-88
2024/01/01 16:29:32;;;;;;;;;;;;;;;;;;5018379;28;20132;-89
2024/01/01 16:31:58;;;;;;;;;;;;;;;;;;5035547;28;19925;-89
2024/01/01 16:34:24;;;;;;;;;;;;;;;;;;5035391;28;19925;-86
2024/01/01 16:36:50;;;;;;;;;;;;;;;;;;5018640;28;19933;-91
2024/01/01 16:39:16;;;;;;;;;;;;;;;;;;5018720;28;20370;-89
2024/01/01 16:41:42;;;;;;;;;;;;;;;;;;5018279;28;19971;-88
2024/01/01 16:44:08;;;;;;;;;;;;;;;;;;5034137;28;19932;-87
2024/01/01 16:46:34;;;;;;;;;;;;;;;;;;5035454;28;19925;-85
2024/01/01 16:49:01;;;;;;;;;;;;;;;;;;5034758;28;19931;-91
2024/01/01 16:51:27;;;;;;;;;;;;;;;;;;5037559;28;19925;-90
2024/01/01 16:53:53;;;;;;;;;;;;;;;;;;5037349;28;19924;-91
2024/01/01 16:56:18;;;;;;;;;;;;;;;;;;5034719;28;19925;-92
2024/01/01 16:58:44;;;;;;;;;;;;;;;;;;5034885;28;20336;-94
2024/01/01 17:01:11;;;;;;;;;;;;;;;;;;5054478;28;19928;-87
2024/01/01 17:03:37;;;;;;;;;;;;;;;;;;5040527;28;19937;-91
2024/01/01 17:06:03;;;;;;;;;;;;;;;;;;5053603;28;19932;-90
2024/01/01 17:08:29;;;;;;;;;;;;;;;;;;5053640;28;19925;-87
2024/01/01 17:10:55;;;;;;;;;;;;;;;;;;5053636;28;20016;-90
2024/01/01 17:13:22;;;;;;;;;;;;;;;;;;5032906;28;19929;-89
2024/01/01 17:15:48;;;;;;;;;;;;;;;;;;5028079;28;20382;-91
2024/01/01 17:18:14;;;;;;;;;;;;;;;;;;5047989;28;19967;-91
2024/01/01 17:20:40;;;;;;;;;;;;;;;;;;5040284;28;20479;-91
2024/01/01 17:23:06;;;;;;;;;;;;;;;;;;5037433;28;20015;-91
2024/01/01 17:25:34;;;;;;;;;;;;;;;;;;5039878;28;19960;-88
2024/01/01 17:28:00;;;;;;;;;;;;;;;;;;5037103;28;19925;-89
2024/01/01 17:30:27;;;;;;;;;;;;;;;;;;5054113;28;19925;-90
2024/01/01 17:32:53;;;;;;;;;;;;;;;;;;5045549;28;19929;-90
2024/01/01 17:35:19;;;;;;;;;;;;;;;;;;5034895;28;19925;-91
2024/01/01 17:37:45;;;;;;;;;;;;;;;;;;5036880;28;19924;-92
2024/01/01 17:40:11;;;;;;;;;;;;;;;;;;5039268;28;19929;-90